createdAt,value
2022-12-17T00:00:03.859Z,98141.88
2022-12-17T00:05:24.319Z,98147.28
2022-12-17T00:10:44.159Z,98139.63
2022-12-17T00:16:09.649Z,98147.56
2022-12-17T00:21:29.738Z,98146.72
2022-12-17T00:26:50.716Z,98142.06
2022-12-17T00:32:12.021Z,98149.81
2022-12-17T00:37:32.170Z,98166.34
2022-12-17T00:42:52.406Z,98171.84
2022-12-17T00:48:16.457Z,98173.53
2022-12-17T00:53:36.562Z,98185.47
2022-12-17T00:58:57.060Z,98190.88
2022-12-17T01:04:17.315Z,98199.09
2022-12-17T01:09:37.454Z,98204.22
2022-12-17T01:14:57.792Z,98200.03
2022-12-17T01:20:17.996Z,98202.00
2022-12-17T01:25:37.847Z,98207.88
2022-12-17T01:30:58.108Z,98212.47
2022-12-17T01:36:18.027Z,98219.38
2022-12-17T01:41:38.591Z,98216.09
2022-12-17T01:47:05.344Z,98211.78
2022-12-17T01:52:27.090Z,98221.41
2022-12-17T01:57:47.563Z,98224.13
2022-12-17T02:03:07.846Z,98236.44
2022-12-17T02:08:46.908Z,98240.63
2022-12-17T02:14:22.052Z,98244.28
2022-12-17T02:19:59.386Z,98241.47
2022-12-17T02:25:30.228Z,98249.91
2022-12-17T02:30:52.259Z,98247.28
2022-12-17T02:36:18.606Z,98247.66
2022-12-17T02:41:47.213Z,98236.56
2022-12-17T02:47:11.987Z,98260.03
2022-12-17T02:52:36.826Z,98252.75
2022-12-17T02:57:57.004Z,98261.16
2022-12-17T03:03:19.632Z,98257.50
2022-12-17T03:08:40.504Z,98260.03
2022-12-17T03:14:00.354Z,98264.16
2022-12-17T03:19:21.020Z,98265.75
2022-12-17T03:24:41.376Z,98278.72
2022-12-17T03:30:01.108Z,98275.63
2022-12-17T03:35:21.414Z,98284.25
2022-12-17T03:40:41.242Z,98287.13
2022-12-17T03:46:01.181Z,98285.25
2022-12-17T03:51:21.803Z,98287.88
2022-12-17T03:56:42.081Z,98287.88
2022-12-17T04:02:02.342Z,98287.69
2022-12-17T04:07:22.679Z,98299.66
2022-12-17T04:12:42.423Z,98301.13
2022-12-17T04:18:02.343Z,98309.09
2022-12-17T04:23:22.468Z,98319.06
2022-12-17T04:28:42.276Z,98331.41
2022-12-17T04:34:02.577Z,98339.66
2022-12-17T04:39:22.464Z,98346.38
2022-12-17T04:44:42.668Z,98343.75
2022-12-17T04:50:02.658Z,98343.38
2022-12-17T04:55:23.087Z,98343.97
2022-12-17T05:00:42.894Z,98351.63
2022-12-17T05:06:03.094Z,98354.97
2022-12-17T05:11:23.947Z,98360.19
2022-12-17T05:16:43.924Z,98365.38
2022-12-17T05:22:03.800Z,98372.91
2022-12-17T05:27:23.754Z,98383.59
2022-12-17T05:32:43.688Z,98395.38
2022-12-17T05:38:03.659Z,98402.50
2022-12-17T05:43:26.038Z,98403.59
2022-12-17T05:48:46.489Z,98404.25
2022-12-17T05:54:06.819Z,98410.34
2022-12-17T05:59:26.983Z,98424.09
2022-12-17T06:04:46.832Z,98427.63
2022-12-17T06:10:06.737Z,98423.44
2022-12-17T06:15:26.899Z,98432.03
2022-12-17T06:20:46.949Z,98443.63
2022-12-17T06:26:06.960Z,98438.13
2022-12-17T06:31:26.824Z,98451.22
2022-12-17T06:36:46.849Z,98454.78
2022-12-17T06:42:07.203Z,98457.47
2022-12-17T06:47:27.327Z,98461.75
2022-12-17T06:52:47.306Z,98473.00
2022-12-17T06:58:07.532Z,98473.66
2022-12-17T07:03:30.406Z,98473.81
2022-12-17T07:08:50.615Z,98482.56
2022-12-17T07:14:10.724Z,98503.28
2022-12-17T07:19:30.579Z,98506.91
2022-12-17T07:24:50.678Z,98515.66
2022-12-17T07:30:14.932Z,98511.91
2022-12-17T07:35:34.830Z,98519.16
2022-12-17T07:40:54.693Z,98520.88
2022-12-17T07:46:14.672Z,98527.06
2022-12-17T07:51:34.658Z,98535.34
2022-12-17T07:56:54.365Z,98540.78
2022-12-17T08:02:14.936Z,98551.66
2022-12-17T08:07:35.196Z,98550.31
2022-12-17T08:12:55.512Z,98555.75
2022-12-17T08:18:24.541Z,98568.16
2022-12-17T08:23:46.304Z,98592.22
2022-12-17T08:29:06.064Z,98591.91
2022-12-17T08:34:25.996Z,98600.06
2022-12-17T08:39:45.871Z,98602.91
2022-12-17T08:45:05.880Z,98602.03
2022-12-17T08:50:26.222Z,98610.50
2022-12-17T08:55:46.047Z,98617.81
2022-12-17T09:01:26.096Z,98620.84
2022-12-17T09:06:45.927Z,98628.00
2022-12-17T09:12:05.980Z,98627.31
2022-12-17T09:17:26.035Z,98628.56
2022-12-17T09:22:46.042Z,98626.56
2022-12-17T09:28:05.823Z,98635.81
2022-12-17T09:33:26.070Z,98633.97
2022-12-17T09:38:45.940Z,98638.25
2022-12-17T09:44:20.662Z,98641.28
2022-12-17T09:49:46.534Z,98642.88
2022-12-17T09:55:09.316Z,98647.09
2022-12-17T10:00:44.449Z,98650.75
2022-12-17T10:06:06.337Z,98665.56
2022-12-17T10:11:46.102Z,98673.19
2022-12-17T10:17:11.635Z,98678.50
2022-12-17T10:22:38.005Z,98678.56
2022-12-17T10:27:58.934Z,98678.44
2022-12-17T10:33:24.068Z,98688.75
2022-12-17T10:38:49.270Z,98698.81
2022-12-17T10:44:29.375Z,98692.88
2022-12-17T10:49:49.199Z,98696.53
2022-12-17T10:55:19.250Z,98693.56
2022-12-17T11:00:49.667Z,98699.34
2022-12-17T11:06:13.510Z,98699.94
2022-12-17T11:11:34.479Z,98705.91
2022-12-17T11:17:00.267Z,98710.97
2022-12-17T11:22:25.958Z,98704.91
2022-12-17T11:27:52.559Z,98710.25
2022-12-17T11:33:33.704Z,98723.53
2022-12-17T11:39:05.238Z,98723.13
2022-12-17T11:44:37.783Z,98719.78
2022-12-17T11:50:24.898Z,98722.47
2022-12-17T11:55:57.424Z,98725.38
2022-12-17T12:01:24.858Z,98721.22
2022-12-17T12:06:58.341Z,98729.00
2022-12-17T12:12:30.450Z,98732.00
2022-12-17T12:18:13.170Z,98735.84
2022-12-17T12:23:42.176Z,98733.22
2022-12-17T12:29:11.440Z,98741.09
2022-12-17T12:34:38.284Z,98747.34
2022-12-17T12:40:36.652Z,98742.78
2022-12-17T12:46:04.658Z,98758.69
2022-12-17T12:51:47.684Z,98759.09
2022-12-17T12:57:07.747Z,98761.88
2022-12-17T13:02:42.731Z,98758.00
2022-12-17T13:07:46.965Z,98758.25
2022-12-17T13:12:49.089Z,98768.50
2022-12-17T13:18:15.371Z,98767.97
2022-12-17T13:23:25.528Z,98776.50
2022-12-17T13:28:31.303Z,98784.84
2022-12-17T13:33:43.984Z,98783.91
2022-12-17T13:38:56.298Z,98789.91
2022-12-17T13:44:01.978Z,98792.88
2022-12-17T13:49:06.370Z,98788.94
2022-12-17T13:54:16.205Z,98802.13
2022-12-17T13:59:21.078Z,98805.00
2022-12-17T14:04:30.282Z,98818.13
2022-12-17T14:09:40.321Z,98827.31
2022-12-17T14:14:46.639Z,98834.59
2022-12-17T14:20:11.384Z,98845.50
2022-12-17T14:25:18.967Z,98845.91
2022-12-17T14:30:33.401Z,98859.88
2022-12-17T14:35:39.084Z,98856.56
2022-12-17T14:40:41.170Z,98863.66
2022-12-17T14:46:12.487Z,98866.47
2022-12-17T14:51:41.641Z,98872.22
2022-12-17T14:56:44.539Z,98880.75
2022-12-17T15:01:51.375Z,98880.56
2022-12-17T15:06:57.640Z,98900.19
2022-12-17T15:11:59.068Z,98897.66
2022-12-17T15:17:01.541Z,98901.38
2022-12-17T15:22:04.361Z,98908.66
2022-12-17T15:27:05.786Z,98906.78
2022-12-17T15:32:07.355Z,98908.13
2022-12-17T15:37:08.742Z,98913.19
2022-12-17T15:42:28.893Z,98915.53
2022-12-17T15:47:30.314Z,98920.22
2022-12-17T15:52:32.411Z,98920.28
2022-12-17T15:57:33.871Z,98930.47
2022-12-17T16:02:36.412Z,98930.59
2022-12-17T16:07:38.145Z,98947.72
2022-12-17T16:12:39.813Z,98945.72
2022-12-17T16:17:41.356Z,98940.63
2022-12-17T16:22:42.771Z,98943.84
2022-12-17T16:27:44.203Z,98952.69
2022-12-17T16:32:45.586Z,98950.72
2022-12-17T16:37:46.972Z,98958.00
2022-12-17T16:42:48.362Z,98951.44
2022-12-17T16:47:50.596Z,98961.78
2022-12-17T16:52:52.079Z,98968.19
2022-12-17T16:57:53.478Z,98977.91
2022-12-17T17:02:55.085Z,98977.75
2022-12-17T17:07:56.859Z,98986.50
2022-12-17T17:12:58.281Z,98982.28
2022-12-17T17:18:01.540Z,98991.56
2022-12-17T17:23:03.667Z,98993.16
2022-12-17T17:28:05.155Z,99004.34
2022-12-17T17:33:06.566Z,99006.13
2022-12-17T17:38:07.967Z,98998.22
2022-12-17T17:43:10.418Z,99008.50
2022-12-17T17:48:11.808Z,99011.09
2022-12-17T17:53:13.314Z,99006.19
2022-12-17T17:58:14.751Z,98999.53
2022-12-17T18:03:16.309Z,99003.66
2022-12-17T18:08:17.840Z,99004.25
2022-12-17T18:13:37.786Z,99012.75
2022-12-17T18:18:39.952Z,99025.56
2022-12-17T18:23:42.004Z,99032.34
2022-12-17T18:28:44.718Z,99031.84
2022-12-17T18:33:50.021Z,99035.56
2022-12-17T18:38:57.379Z,99047.53
2022-12-17T18:44:01.601Z,99063.19
2022-12-17T18:49:09.895Z,99051.81
2022-12-17T18:54:14.975Z,99061.63
2022-12-17T18:59:22.044Z,99063.88
2022-12-17T19:04:26.573Z,99072.09
2022-12-17T19:09:31.102Z,99073.31
2022-12-17T19:14:33.279Z,99080.63
2022-12-17T19:19:34.702Z,99074.94
2022-12-17T19:24:36.103Z,99083.88
2022-12-17T19:29:37.984Z,99081.47
2022-12-17T19:34:39.368Z,99080.06
2022-12-17T19:39:40.824Z,99075.81
2022-12-17T19:44:42.254Z,99089.78
2022-12-17T19:49:43.689Z,99091.72
2022-12-17T19:54:45.164Z,99090.88
2022-12-17T19:59:46.657Z,99095.50
2022-12-17T20:04:48.108Z,99095.84
2022-12-17T20:09:49.810Z,99101.31
2022-12-17T20:14:51.198Z,99110.19
2022-12-17T20:19:53.711Z,99111.94
2022-12-17T20:24:56.495Z,99109.81
2022-12-17T20:29:57.883Z,99116.31
2022-12-17T20:34:59.307Z,99124.88
2022-12-17T20:40:00.862Z,99130.81
2022-12-17T20:45:02.280Z,99127.47
2022-12-17T20:50:04.035Z,99132.03
2022-12-17T20:55:05.919Z,99134.59
2022-12-17T21:00:08.386Z,99144.13
2022-12-17T21:05:10.179Z,99139.84
2022-12-17T21:10:12.443Z,99144.13
2022-12-17T21:15:17.948Z,99152.97
2022-12-17T21:20:26.036Z,99152.31
2022-12-17T21:25:28.037Z,99151.78
2022-12-17T21:30:29.724Z,99159.84
2022-12-17T21:35:31.251Z,99159.84
2022-12-17T21:40:35.679Z,99171.19
2022-12-17T21:45:38.990Z,99182.25
2022-12-17T21:50:42.709Z,99185.81
2022-12-17T21:55:44.910Z,99188.53
2022-12-17T22:00:53.409Z,99185.13
2022-12-17T22:05:56.434Z,99185.22
2022-12-17T22:10:59.516Z,99177.47
2022-12-17T22:16:07.904Z,99191.72
2022-12-17T22:21:09.471Z,99182.19
2022-12-17T22:26:12.620Z,99189.94
2022-12-17T22:31:39.654Z,99202.06
2022-12-17T22:38:52.386Z,99212.44
2022-12-17T22:44:46.624Z,99207.06
2022-12-17T22:47:43.799Z,99215.97
2022-12-17T22:52:45.270Z,99221.31
2022-12-17T22:57:47.162Z,99216.00
2022-12-17T23:02:52.254Z,99225.53
2022-12-17T23:07:54.194Z,99226.44
2022-12-17T23:12:56.027Z,99225.53
2022-12-17T23:18:00.024Z,99229.00
2022-12-17T23:23:01.913Z,99226.44
2022-12-17T23:28:03.555Z,99241.25
2022-12-17T23:33:05.313Z,99238.78
2022-12-17T23:38:06.873Z,99239.88
2022-12-17T23:43:09.690Z,99244.47
2022-12-17T23:48:14.334Z,99243.81
2022-12-17T23:53:15.809Z,99226.69
2022-12-17T23:58:17.544Z,99240.63
